ENKR

Kirkenes , Høybuktmoen Airport

Kirkenes, Norway
METAR ENKR 160920Z 16006KT CAVOK 03/01 Q1015 RMK WIND 731FT VRB04KT
Observed Flight Rules
Nov-16 @ 09:20 UTC (25 minutes ago) Visual Flight Rules
Wind Visibility Clouds
160° at 6 knots 10,000+ meters
  • Clear skies
Temperatures Readings
Current 3°C / 37°F
Dewpoint 1°C / 34°F
Humidity 87%
Altimeter 29.97" Hg
Pressure 1015 hPa
Elevation 91
METAR ENKR 160920Z 16006KT CAVOK 03/01 Q1015 RMK WIND 731FT VRB04KT
Observed Flight Rules
Nov-16 @ 09:20 UTC
(25 minutes ago)
VFR
Wind Visibility
160° at 6 knots 10,000+ meters
Clouds
  • Clear skies
Temperature Dewpoint
3°C / 37°F 1°C / 34°F
Humidity Altimeter Pressure
87% 29.97" Hg 1015 hPa